Beatty, Nevada Weather observations

Data are for observation ending at time listed.
 Day   Time    Ave.   Ave.  Ave.  Vector   Max.   Stn.    Total    Solar   Ave.  
  of    of     Air    Rel.  Wind   Wind    Wind   Baro.  Precip.   Rad.    Soil  
Year   Day     Temp.  Hum.  Speed  Dir.    Gust   Pres.                    Temp. 
2024   (PST)    F      %     mph   deg.    mph     mb.     in.     W/m2     F   
------------------------------------------------------------------------------
 149    1:00   62.3    23    6.4     2      9.9   899.5    0.00       0    79.2
 149    1:10   61.8    24    6.0     4      9.6   899.5    0.00       0    79.1
 149    1:20   61.3    24    5.8     6      9.1   899.4    0.00       0    79.1
 149    1:30   61.2    24    4.5     4      8.6   899.5    0.00       0    79.1
 149    1:40   61.1    24    2.4    20      6.2   899.6    0.00       0    79.0
 149    1:50   61.5    24    1.5    49      4.5   899.6    0.00       0    79.0
 149    2:00   60.8    25    2.0    46      4.8   899.6    0.00       0    78.9
 149    2:10   60.2    25    3.4    15      8.0   899.7    0.00       0    78.9
 149    2:20   59.7    25    2.5    22      7.7   899.7    0.00       0    78.8
 149    2:30   59.6    26    2.7    36      5.8   899.8    0.00       0    78.8
 149    2:40   59.4    26    2.7    44      5.8   899.8    0.00       0    78.7
 149    2:50   58.5    28    3.5    13      7.0   899.8    0.00       0    78.7
 149    3:00   58.3    28    3.2    44      6.4   899.8    0.00       0    78.7
 149    3:10   58.4    28    3.4    37      7.5   899.8    0.00       0    78.6
 149    3:20   57.9    28    4.1    42      7.4   899.8    0.00       0    78.6
 149    3:30   57.4    29    4.7     8      8.6   899.8    0.00       0    78.5
 149    3:40   57.5    29    4.8     0      9.2   899.9    0.00       0    78.5
 149    3:50   57.3    29    5.2     4      9.6   899.9    0.00       0    78.4
 149    4:00   58.0    29    4.2    12      8.0   899.9    0.00       0    78.4
 149    4:10   58.4    28    4.8     6      7.2   900.0    0.00       0    78.3
 149    4:20   58.8    28    4.9    16      8.4   900.0    0.00       0    78.3
 149    4:30   58.7    28    4.3    13      7.8   900.1    0.00       2    78.2
 149    4:40   59.9    27    4.8    29      8.3   900.1    0.00       6    78.2
 149    4:50   58.8    28    5.9   357      9.3   900.2    0.00      10    78.1
 149    5:00   57.9    29    5.7    14      8.9   900.3    0.00      15    78.1
 149    5:10   59.0    28    5.0     8      8.0   900.4    0.00      35    78.0
 149    5:20   59.6    28    4.7     5      7.7   900.5    0.00      59    78.0
 149    5:30   60.2    28    4.6     6      7.7   900.5    0.00      49    77.9
 149    5:40   63.3    25    3.8    38      8.1   900.5    0.00      37    77.8
 149    5:50   64.8    24    3.8    18      7.1   900.6    0.00      28    77.7
 149    6:00   65.5    23    3.3    19      7.1   900.7    0.00      36    77.7
 149    6:10   67.1    22    1.9    31      5.3   900.7    0.00      78    77.6
 149    6:20   69.2    20    1.6    49      4.5   900.8    0.00      40    77.5
 149    6:30   69.7    20    3.3    50      6.6   900.8    0.00      36    77.5
 149    6:40   69.2    20    3.0    44      7.0   900.8    0.00      33    77.4
 149    6:50   69.6    20    2.6    70      6.0   900.8    0.00      36    77.4
 149    7:00   70.3    20    2.9    80      6.1   900.9    0.00      43    77.3
 149    7:10   71.5    20    2.1    81      5.7   900.9    0.00      69    77.3
 149    7:20   72.3    20    2.4    95      5.1   900.9    0.00     303    77.3
 149    7:30   73.3    19    1.2   133      3.0   900.9    0.00     437    77.2
 149    7:40   73.9    19    1.4   179      2.9   900.9    0.00     453    77.2
 149    7:50   74.6    19    1.8   167      3.7   901.0    0.00     474    77.1
 149    8:00   75.3    18    2.4   198      5.6   901.0    0.00     502    77.1
 149    8:10   77.1    17    3.2   201      5.4   901.0    0.00     526    77.0
 149    8:20   78.7    16    2.8   197      7.7   900.9    0.00     548    76.9
 149    8:30   79.4    16    4.1   224      8.4   900.9    0.00     575    76.9
 149    8:40   80.0    17    5.0   212      8.5   900.8    0.00     596    76.9
 149    8:50   80.3    17    4.4   206      8.3   900.7    0.00     620    76.8
 149    9:00   81.4    16    3.8   196      9.1   900.7    0.00     636    76.8
 149    9:10   81.8    16    2.2   188      5.8   900.6    0.00     654    76.7
 149    9:20   82.7    16    2.9   224      8.0   900.6    0.00     670    76.7
 149    9:30   83.2    16    3.2   217      9.6   900.5    0.00     688    76.6
 149    9:40   83.5    16    5.2   210      9.9   900.5    0.00     706    76.6
 149    9:50   83.8    16    5.5   228     10.9   900.4    0.00     724    76.5
 149   10:00   84.1    16    5.6   226     11.5   900.3    0.00     740    76.5
 149   10:10   84.8    14    6.4   205     12.5   900.3    0.00     753    76.5
 149   10:20   84.8    14    6.8   210     12.5   900.2    0.00     767    76.4
 149   10:30   84.8    13    7.8   223     13.8   900.2    0.00     780    76.4
 149   10:40   84.6    13    6.7   200     11.0   900.2    0.00     790    76.4
 149   10:50   85.4    13    7.1   217     16.4   900.1    0.00     799    76.4
 149   11:00   85.5    13    6.8   205     12.9   900.1    0.00     808    76.4
 149   11:10   85.7    13    5.8   212     12.4   900.1    0.00     815    76.5
 149   11:20   85.6    13    6.7   185     14.2   900.0    0.00     820    76.5
 149   11:30   85.9    13    6.1   189     13.2   899.9    0.00     822    76.6
 149   11:40   86.8    13    6.6   210     14.5   899.8    0.00     826    76.6
 149   11:50   86.8    12    7.1   202     14.4   899.7    0.00     822    76.6
 149   12:00   87.4    11    9.0   215     17.7   899.5    0.00     830    76.7
 149   12:10   87.7    11    9.2   198     18.9   899.5    0.00     828    76.7
 149   12:20   87.6    11    6.7   218     18.5   899.4    0.00     819    76.8
 149   12:30   88.3    11    5.7   201     18.2   899.2    0.00     818    76.9
 149   12:40   88.5    10    8.9   195     17.2   899.2    0.00     817    77.0
 149   12:50   88.7    10    7.0   208     15.0   899.1    0.00     809    77.1
 149   13:00   88.7    11    4.6   201     10.3   898.9    0.00     799    77.2
 149   13:10   88.9    11    5.6   197     11.6   898.8    0.00     793    77.3
 149   13:20   89.7    11    7.3   216     15.0   898.7    0.00     780    77.4
 149   13:30   89.7    11    7.2   214     14.7   898.6    0.00     769    77.5
 149   13:40   90.4    11    4.8   203     13.0   898.5    0.00     754    77.6
 149   13:50   89.9    11    8.8   197     17.5   898.4    0.00     742    77.7
 149   14:00   89.8    11    9.7   221     17.8   898.3    0.00     727    77.8
 149   14:10   89.8    11    7.5   222     17.8   898.2    0.00     711    78.0
 149   14:20   89.9    11    9.9   198     19.3   898.2    0.00     693    78.1
 149   14:30   89.4    11    9.1   211     17.2   898.1    0.00     679    78.2
 149   14:40   90.0    10    6.5   229     16.9   898.0    0.00     664    78.3
 149   14:50   90.2     9    9.4   219     18.9   897.9    0.00     643    78.4
 149   15:00   90.4     9    7.7   215     15.6   897.9    0.00     622    78.5
 149   15:10   90.1     9    7.2   221     16.4   897.8    0.00     600    78.6
 149   15:20   89.8     9    7.0   208     14.8   897.7    0.00     577    78.7
 149   15:30   90.1     8    9.9   217     19.4   897.7    0.00     558    78.8
 149   15:40   89.7     8    9.4   207     19.4   897.6    0.00     532    78.9
 149   15:50   89.6     8    7.3   206     21.5   897.6    0.00     508    79.0
 149   16:00   89.7     8    7.8   213     13.0   897.5    0.00     481    79.1
 149   16:10   89.6     8    7.4   227     14.8   897.4    0.00     454    79.2
 149   16:20   89.8     8    6.9   217     12.7   897.3    0.00     427    79.3
 149   16:30   89.4     9    9.2   221     16.4   897.3    0.00     400    79.4
 149   16:40   89.4    10    9.4   218     15.5   897.2    0.00     372    79.5
 149   16:50   89.2    10    9.1   219     15.8   897.1    0.00     344    79.6
 149   17:00   89.2     9    7.0   204     13.7   897.0    0.00     316    79.7
 149   17:10   88.9     9    6.9   211     12.7   896.9    0.00     287    79.7
 149   17:20   88.8     9    8.3   209     15.1   896.9    0.00     256    79.8
 149   17:30   88.8     9    6.7   214     12.4   896.9    0.00     226    79.8
 149   17:40   88.4     9    5.1   231     12.9   896.9    0.00     197    79.9
 149   17:50   87.9     9    6.1   219     12.3   896.9    0.00     169    80.0
 149   18:00   87.6     9    6.3   223     13.1   896.9    0.00     130    80.0
 149   18:10   87.2     9    7.1   221     11.0   896.9    0.00     116    80.1
 149   18:20   86.9     9    6.9   223     11.9   896.9    0.00      88    80.1
 149   18:30   86.2     9    4.7   218      9.0   897.0    0.00      61    80.2
 149   18:40   85.3    10    3.7   226      6.9   897.1    0.00      17    80.2
 149   18:50   84.7    10    2.9   227      6.6   897.0    0.00      11    80.2
 149   19:00   84.2    10    4.1   222      8.1   897.1    0.00       6    80.3
 149   19:10   83.9    10    3.3   224      6.3   897.1    0.00       2    80.3
 149   19:20   82.8    10    2.4   225      5.3   897.1    0.00       0    80.3
 149   19:30   82.2    11    2.9   208      5.0   897.1    0.00       0    80.3
 149   19:40   80.9    11    2.3   203      4.3   897.2    0.00       0    80.3
 149   19:50   78.7    13    0.4   268      2.6   897.3    0.00       0    80.3
 149   20:00   76.7    15    0.1   303      0.6   897.4    0.00       0    80.3
 149   20:10   75.0    17    0.5    92      1.6   897.5    0.00       0    80.4
 149   20:20   74.3    18    0.8    64      2.3   897.6    0.00       0    80.4
 149   20:30   72.8    18    1.0    70      2.1   897.7    0.00       0    80.4
 149   20:40   72.1    18    1.0    74      2.4   897.8    0.00       0    80.4
 149   20:50   71.1    20    1.1    55      2.3   897.8    0.00       0    80.4
 149   21:00   71.0    19    1.0    57      2.1   898.0    0.00       0    80.4
 149   21:10   70.7    20    1.0    57      2.0   898.1    0.00       0    80.4
 149   21:20   69.9    19    1.7    74      3.7   898.2    0.00       0    80.4
 149   21:30   68.6    18    1.6    55      3.6   898.2    0.00       0    80.4
 149   21:40   67.4    19    2.0    74      3.6   898.2    0.00       0    80.4
 149   21:50   66.1    20    2.0    72      5.0   898.2    0.00       0    80.4
 149   22:00   66.2    20    2.9    65      4.7   898.2    0.00       0    80.4
 149   22:10   66.3    20    2.2    68      3.7   898.2    0.00       0    80.4
 149   22:20   67.5    20    2.8    45      4.7   898.2    0.00       0    80.3
 149   22:30   68.1    19    3.1    53      6.4   898.2    0.00       0    80.3
 149   22:40   69.0    19    1.7    69      4.0   898.2    0.00       0    80.3
 149   22:50   67.0    22    1.5     6      3.1   898.3    0.00       0    80.3
 149   23:00   66.2    22    0.9    35      1.9   898.3    0.00       0    80.3
 149   23:10   65.8    21    1.9    18      4.1   898.3    0.00       0    80.3
 149   23:20   65.8    21    1.8    38      3.0   898.3    0.00       0    80.2
 149   23:30   65.5    21    1.4    30      2.7   898.3    0.00       0    80.2
 149   23:40   64.8    22    2.0    42      4.2   898.3    0.00       0    80.2
 149   23:50   64.4    22    2.3    20      4.3   898.3    0.00       0    80.2
 150    0:00   63.9    23    1.0    28      3.3   898.3    0.00       0    80.2
 150    0:10   63.1    24    1.1    39      3.0   898.3    0.00       0    80.1
 150    0:20   62.8    24    1.5    60      4.5   898.4    0.00       0    80.1
 150    0:30   63.1    24    1.5    64      5.0   898.4    0.00       0    80.1
 150    0:40   62.8    24    2.4    31      5.7   898.4    0.00       0    80.0
 150    0:50   63.6    23    2.4    51      6.1   898.4    0.00       0    80.0

Return to Beatty, Nevada graphs page.


Western Regional Climate Center,wrcc@dri.edu